createdAt,value
2023-02-04T00:07:01.220Z,2
2023-02-04T00:17:05.364Z,2
2023-02-04T00:27:11.588Z,5
2023-02-04T00:37:17.654Z,2
2023-02-04T00:47:24.553Z,2
2023-02-04T00:57:29.687Z,2
2023-02-04T01:07:35.494Z,3
2023-02-04T01:17:41.506Z,2
2023-02-04T01:27:47.060Z,2
2023-02-04T01:37:55.624Z,2
2023-02-04T01:48:00.909Z,2
2023-02-04T01:58:06.446Z,3
2023-02-04T02:08:12.062Z,1
2023-02-04T02:18:15.784Z,3
2023-02-04T02:28:20.407Z,1
2023-02-04T02:38:26.082Z,2
2023-02-04T02:48:33.062Z,1
2023-02-04T02:58:39.216Z,2
2023-02-04T03:08:45.574Z,4
2023-02-04T03:18:52.000Z,2
2023-02-04T03:28:58.698Z,3
2023-02-04T03:39:07.359Z,2
2023-02-04T03:49:10.312Z,2
2023-02-04T03:59:15.518Z,1
2023-02-04T04:09:22.244Z,1
2023-02-04T04:19:27.959Z,2
2023-02-04T04:29:34.762Z,1
2023-02-04T04:39:40.936Z,5
2023-02-04T04:49:47.680Z,2
2023-02-04T04:59:53.323Z,2
2023-02-04T05:10:00.081Z,2
2023-02-04T05:20:04.777Z,2
2023-02-04T05:30:09.621Z,2
2023-02-04T05:40:17.002Z,2
2023-02-04T05:50:22.727Z,3
2023-02-04T06:00:29.733Z,3
2023-02-04T06:10:35.879Z,2
2023-02-04T06:20:39.740Z,3
2023-02-04T06:30:43.992Z,2
2023-02-04T06:40:48.207Z,3
2023-02-04T06:50:54.345Z,4
2023-02-04T07:01:02.108Z,3
2023-02-04T07:11:06.609Z,2
2023-02-04T07:21:12.851Z,4
2023-02-04T07:31:18.644Z,5
2023-02-04T07:41:24.800Z,9
2023-02-04T07:51:29.769Z,6
2023-02-04T08:01:35.789Z,7
2023-02-04T08:11:45.228Z,9
2023-02-04T08:21:50.062Z,7
2023-02-04T08:31:54.560Z,6
2023-02-04T08:41:59.854Z,6
2023-02-04T08:52:05.856Z,7
2023-02-04T09:02:12.032Z,7
2023-02-04T09:12:16.881Z,7
2023-02-04T09:22:22.948Z,6
2023-02-04T09:32:30.138Z,7
2023-02-04T09:42:35.578Z,6
2023-02-04T09:52:41.468Z,9
2023-02-04T10:02:48.796Z,9
2023-02-04T10:12:55.427Z,10
2023-02-04T10:23:01.142Z,5
2023-02-04T10:33:08.294Z,5
2023-02-04T10:43:13.231Z,9
2023-02-04T10:53:19.223Z,9
2023-02-04T11:03:25.155Z,7
2023-02-04T11:13:32.250Z,5
2023-02-04T11:23:36.464Z,5
2023-02-04T11:33:41.725Z,6
2023-02-04T11:43:47.127Z,5
2023-02-04T11:53:53.815Z,7
2023-02-04T12:03:59.940Z,6
2023-02-04T12:14:06.191Z,7
2023-02-04T12:24:09.610Z,7
2023-02-04T12:34:15.739Z,7
2023-02-04T12:44:23.567Z,9
2023-02-04T12:54:29.587Z,6
2023-02-04T13:04:36.681Z,7
2023-02-04T13:14:42.509Z,8
2023-02-04T13:24:49.622Z,5
2023-02-04T13:34:55.025Z,5
2023-02-04T13:44:59.494Z,5
2023-02-04T13:55:07.073Z,5
2023-02-04T14:05:12.877Z,9
2023-02-04T14:15:16.562Z,4
2023-02-04T14:25:22.517Z,6
2023-02-04T14:35:28.478Z,6
2023-02-04T14:45:35.519Z,6
2023-02-04T14:55:42.110Z,8
2023-02-04T15:05:47.934Z,11
2023-02-04T15:15:53.116Z,6
2023-02-04T15:26:00.943Z,6
2023-02-04T15:36:05.374Z,8
2023-02-04T15:46:09.596Z,8
2023-02-04T15:56:14.305Z,9
2023-02-04T16:06:22.484Z,8
2023-02-04T16:16:27.039Z,8
2023-02-04T16:26:32.844Z,12
2023-02-04T16:36:40.022Z,10
2023-02-04T16:46:46.732Z,9
2023-02-04T16:56:52.291Z,10
2023-02-04T17:06:56.634Z,11
2023-02-04T17:17:03.901Z,12
2023-02-04T17:27:06.834Z,12
2023-02-04T17:37:13.057Z,12
2023-02-04T17:47:19.113Z,11
2023-02-04T17:57:23.176Z,19
2023-02-04T18:07:28.398Z,22
2023-02-04T18:17:37.252Z,16
2023-02-04T18:27:40.818Z,19
2023-02-04T18:37:45.903Z,14
2023-02-04T18:47:51.920Z,12
2023-02-04T18:57:57.292Z,16
2023-02-04T19:08:03.007Z,16
2023-02-04T19:18:09.334Z,14
2023-02-04T19:28:15.284Z,15
2023-02-04T19:38:19.911Z,19
2023-02-04T19:48:24.598Z,17
2023-02-04T19:58:30.797Z,12
2023-02-04T20:08:38.502Z,19
2023-02-04T20:18:43.859Z,15
2023-02-04T20:28:50.115Z,15
2023-02-04T20:38:55.320Z,16
2023-02-04T20:48:59.204Z,17
2023-02-04T20:59:04.857Z,17
2023-02-04T21:09:11.062Z,17
2023-02-04T21:19:18.207Z,16
2023-02-04T21:29:22.856Z,12
2023-02-04T21:39:28.754Z,13
2023-02-04T21:49:33.703Z,11
2023-02-04T21:59:39.747Z,13
2023-02-04T22:09:46.846Z,9
2023-02-04T22:19:53.785Z,8
2023-02-04T22:29:59.221Z,5
2023-02-04T22:40:03.786Z,9
2023-02-04T22:50:11.253Z,8
2023-02-04T23:00:18.334Z,7
2023-02-04T23:10:24.904Z,9
2023-02-04T23:20:31.314Z,10
2023-02-04T23:30:36.487Z,8
2023-02-04T23:40:42.787Z,8
2023-02-04T23:50:48.613Z,8
